createdAt,value
2023-05-18T00:03:33.703Z,6.30
2023-05-18T00:08:37.531Z,7.20
2023-05-18T00:13:39.356Z,6.30
2023-05-18T00:18:41.677Z,6.40
2023-05-18T00:23:49.620Z,6.40
2023-05-18T00:28:51.384Z,6.90
2023-05-18T00:33:53.223Z,6.10
2023-05-18T00:38:55.061Z,6.60
2023-05-18T00:43:57.795Z,7.30
2023-05-18T00:49:02.180Z,5.80
2023-05-18T00:54:22.928Z,6.20
2023-05-18T00:59:24.786Z,5.70
2023-05-18T01:09:29.757Z,5.30
2023-05-18T01:14:42.787Z,7.00
2023-05-18T01:20:23.337Z,6.20
2023-05-18T01:25:34.905Z,5.40
2023-05-18T01:30:41.597Z,5.20
2023-05-18T01:35:50.669Z,5.60
2023-05-18T01:46:05.283Z,5.40
2023-05-18T01:51:12.539Z,5.80
2023-05-18T01:56:14.817Z,4.30
2023-05-18T02:01:20.061Z,4.80
2023-05-18T02:06:21.987Z,4.70
2023-05-18T02:11:23.814Z,5.30
2023-05-18T02:16:26.352Z,5.30
2023-05-18T02:21:28.257Z,5.20
2023-05-18T02:26:29.938Z,5.30
2023-05-18T02:31:32.378Z,4.90
2023-05-18T02:36:42.779Z,4.30
2023-05-18T02:41:44.519Z,5.10
2023-05-18T02:46:46.292Z,4.30
2023-05-18T02:51:48.298Z,4.30
2023-05-18T02:56:50.524Z,3.70
2023-05-18T03:02:06.300Z,3.20
2023-05-18T03:07:10.494Z,4.40
2023-05-18T03:12:12.541Z,4.70
2023-05-18T03:22:16.949Z,4.70
2023-05-18T03:27:25.282Z,4.00
2023-05-18T03:32:32.037Z,5.00
2023-05-18T03:37:34.167Z,4.90
2023-05-18T03:42:36.075Z,4.40
2023-05-18T03:47:39.474Z,4.00
2023-05-18T03:52:44.480Z,4.30
2023-05-18T03:57:46.270Z,3.50
2023-05-18T04:02:51.825Z,4.60
2023-05-18T04:07:57.396Z,4.30
2023-05-18T04:12:59.055Z,4.20
2023-05-18T04:18:02.077Z,4.90
2023-05-18T04:23:05.190Z,3.90
2023-05-18T04:28:07.443Z,3.90
2023-05-18T04:33:09.392Z,3.70
2023-05-18T04:38:11.419Z,3.60
2023-05-18T04:43:13.359Z,4.70
2023-05-18T04:48:17.806Z,4.10
2023-05-18T04:53:21.621Z,4.40
2023-05-18T04:58:23.498Z,4.00
2023-05-18T05:03:25.329Z,3.90
2023-05-18T05:08:27.119Z,4.90
2023-05-18T05:13:28.875Z,4.30
2023-05-18T05:18:30.739Z,3.50
2023-05-18T05:23:32.568Z,3.50
2023-05-18T05:28:34.365Z,4.50
2023-05-18T05:33:36.093Z,4.40
2023-05-18T05:38:38.051Z,4.70
2023-05-18T05:43:39.935Z,4.30
2023-05-18T05:48:41.955Z,4.50
2023-05-18T05:53:46.180Z,4.70
2023-05-18T05:58:48.624Z,4.00
2023-05-18T06:03:52.082Z,4.90
2023-05-18T06:08:54.059Z,5.20
2023-05-18T06:14:28.743Z,4.20
2023-05-18T06:19:32.131Z,4.00
2023-05-18T06:24:33.916Z,4.30
2023-05-18T06:29:57.811Z,6.00
2023-05-18T06:35:23.358Z,4.20
2023-05-18T06:40:25.331Z,3.90
2023-05-18T06:45:27.181Z,3.00
2023-05-18T06:50:34.835Z,3.90
2023-05-18T06:55:37.842Z,3.50
2023-05-18T07:00:39.842Z,3.90
2023-05-18T07:05:42.571Z,3.80
2023-05-18T07:15:46.226Z,3.30
2023-05-18T07:20:47.990Z,3.00
2023-05-18T07:25:49.931Z,3.30
2023-05-18T07:30:51.710Z,2.90
2023-05-18T07:35:53.407Z,3.90
2023-05-18T07:40:55.501Z,3.20
2023-05-18T07:45:57.201Z,2.70
2023-05-18T07:50:58.869Z,4.10
2023-05-18T07:56:01.345Z,3.20
2023-05-18T08:01:03.831Z,2.90
2023-05-18T08:06:05.624Z,3.40
2023-05-18T08:11:07.369Z,3.00
2023-05-18T08:16:12.283Z,4.00
2023-05-18T08:21:14.395Z,3.20
2023-05-18T08:26:16.160Z,3.10
2023-05-18T08:31:17.984Z,7.30
2023-05-18T08:36:19.782Z,3.20
2023-05-18T08:41:31.363Z,3.10
2023-05-18T08:46:35.008Z,3.60
2023-05-18T08:51:40.347Z,3.00
2023-05-18T08:56:43.023Z,2.40
2023-05-18T09:01:44.803Z,2.50
2023-05-18T09:11:50.751Z,2.40
2023-05-18T09:16:53.560Z,2.40
2023-05-18T09:21:55.316Z,2.50
2023-05-18T09:26:57.216Z,2.40
2023-05-18T09:32:04.401Z,2.80
2023-05-18T09:37:06.758Z,2.60
2023-05-18T09:42:08.612Z,2.30
2023-05-18T09:47:10.817Z,3.10
2023-05-18T09:52:12.723Z,2.10
2023-05-18T09:57:15.632Z,2.40
2023-05-18T10:02:19.383Z,2.30
2023-05-18T10:07:22.545Z,2.80
2023-05-18T10:12:24.602Z,2.40
2023-05-18T10:17:28.185Z,2.50
2023-05-18T10:22:30.055Z,2.70
2023-05-18T10:27:35.943Z,3.20
2023-05-18T10:32:39.528Z,2.50
2023-05-18T10:37:47.383Z,1.90
2023-05-18T10:42:52.023Z,2.70
2023-05-18T10:47:55.253Z,2.50
2023-05-18T10:52:59.282Z,2.50
2023-05-18T10:58:10.803Z,2.30
2023-05-18T11:03:14.514Z,2.50
2023-05-18T11:08:26.837Z,2.20
2023-05-18T11:13:30.937Z,2.40
2023-05-18T11:18:36.023Z,1.80
2023-05-18T11:23:38.661Z,2.00
2023-05-18T11:28:44.213Z,2.20
2023-05-18T11:33:46.160Z,2.00
2023-05-18T11:38:55.965Z,2.20
2023-05-18T11:44:15.409Z,2.40
2023-05-18T11:49:19.953Z,2.40
2023-05-18T11:54:26.417Z,2.70
2023-05-18T11:59:33.139Z,2.60
2023-05-18T12:04:37.459Z,1.70
2023-05-18T12:09:43.894Z,3.00
2023-05-18T12:14:54.091Z,2.40
2023-05-18T12:19:55.963Z,2.00
2023-05-18T12:24:57.857Z,2.40
2023-05-18T12:29:59.825Z,3.00
2023-05-18T12:35:01.983Z,2.30
2023-05-18T12:40:04.519Z,3.20
2023-05-18T12:45:09.470Z,2.90
2023-05-18T12:50:12.516Z,3.70
2023-05-18T12:55:22.040Z,2.60
2023-05-18T13:00:23.976Z,2.90
2023-05-18T13:05:25.952Z,2.60
2023-05-18T13:10:33.789Z,3.50
2023-05-18T13:15:37.620Z,3.20
2023-05-18T13:20:41.532Z,3.30
2023-05-18T13:25:44.957Z,2.70
2023-05-18T13:30:49.051Z,3.00
2023-05-18T13:35:50.975Z,3.20
2023-05-18T13:40:52.773Z,3.10
2023-05-18T13:45:54.599Z,3.10
2023-05-18T13:50:56.777Z,4.70
2023-05-18T13:55:58.737Z,4.00
2023-05-18T14:06:06.193Z,3.70
2023-05-18T14:11:07.960Z,3.50
2023-05-18T14:16:10.007Z,3.40
2023-05-18T14:21:11.705Z,6.00
2023-05-18T14:26:13.720Z,3.20
2023-05-18T14:31:15.718Z,2.80
2023-05-18T14:36:19.914Z,1.80
2023-05-18T14:41:22.956Z,2.80
2023-05-18T14:46:24.826Z,4.00
2023-05-18T14:51:26.613Z,2.60
2023-05-18T14:56:28.496Z,2.70
2023-05-18T15:01:30.728Z,2.40
2023-05-18T15:06:33.314Z,3.10
2023-05-18T15:11:35.258Z,3.40
2023-05-18T15:16:37.308Z,2.70
2023-05-18T15:21:39.074Z,3.60
2023-05-18T15:26:41.571Z,3.00
2023-05-18T15:31:44.013Z,3.30
2023-05-18T15:41:48.065Z,3.00
2023-05-18T15:46:50.772Z,2.40
2023-05-18T15:51:52.568Z,2.50
2023-05-18T15:56:54.862Z,2.50
2023-05-18T16:01:56.593Z,2.30
2023-05-18T16:06:58.336Z,3.10
2023-05-18T16:12:00.073Z,3.00
2023-05-18T16:17:02.992Z,2.80
2023-05-18T16:22:04.969Z,2.50
2023-05-18T16:27:06.696Z,3.00
2023-05-18T16:32:08.597Z,2.70
2023-05-18T16:37:10.285Z,2.80
2023-05-18T16:42:12.424Z,2.50
2023-05-18T16:47:14.798Z,2.80
2023-05-18T16:52:18.320Z,2.00
2023-05-18T16:57:20.106Z,2.90
2023-05-18T17:02:24.182Z,2.50
2023-05-18T17:07:26.306Z,2.90
2023-05-18T17:12:28.860Z,3.40
2023-05-18T17:17:30.593Z,3.90
2023-05-18T17:22:32.974Z,3.20
2023-05-18T17:27:35.040Z,3.40
2023-05-18T17:32:38.762Z,3.20
2023-05-18T17:37:41.378Z,3.20
2023-05-18T17:47:46.237Z,2.80
2023-05-18T17:52:48.076Z,2.80
2023-05-18T17:57:51.387Z,3.30
2023-05-18T18:02:54.077Z,4.10
2023-05-18T18:12:59.302Z,3.90
2023-05-18T18:18:01.180Z,3.90
2023-05-18T18:23:03.659Z,4.30
2023-05-18T18:28:08.282Z,4.10
2023-05-18T18:33:11.121Z,4.00
2023-05-18T18:38:12.978Z,5.20
2023-05-18T18:43:15.802Z,5.00
2023-05-18T18:48:21.160Z,4.90
2023-05-18T18:53:23.094Z,5.90
2023-05-18T18:58:24.818Z,5.20
2023-05-18T19:03:27.112Z,5.90
2023-05-18T19:08:28.861Z,7.10
2023-05-18T19:13:30.648Z,5.70
2023-05-18T19:18:32.526Z,5.20
2023-05-18T19:23:34.212Z,6.00
2023-05-18T19:28:36.091Z,5.90
2023-05-18T19:33:38.066Z,5.90
2023-05-18T19:38:39.766Z,5.40
2023-05-18T19:43:41.882Z,5.10
2023-05-18T19:48:43.764Z,6.20
2023-05-18T19:53:45.855Z,6.50
2023-05-18T19:58:48.732Z,6.40
2023-05-18T20:03:51.719Z,6.80
2023-05-18T20:08:53.573Z,7.40
2023-05-18T20:13:55.320Z,6.90
2023-05-18T20:18:57.838Z,7.20
2023-05-18T20:29:01.621Z,6.80
2023-05-18T20:34:03.985Z,5.50
2023-05-18T20:39:07.239Z,5.40
2023-05-18T20:44:11.211Z,8.30
2023-05-18T20:49:13.200Z,8.90
2023-05-18T20:54:14.886Z,11.10
2023-05-18T20:59:18.160Z,9.20
2023-05-18T21:04:20.091Z,8.50
2023-05-18T21:09:22.704Z,8.40
2023-05-18T21:14:51.354Z,8.00
2023-05-18T21:19:53.290Z,7.30
2023-05-18T21:24:55.110Z,6.70
2023-05-18T21:29:57.091Z,5.60
2023-05-18T21:34:58.936Z,5.90
2023-05-18T21:40:04.834Z,6.50
2023-05-18T21:45:07.941Z,7.00
2023-05-18T21:50:11.437Z,6.50
2023-05-18T21:55:13.298Z,7.50
2023-05-18T22:00:16.717Z,5.90
2023-05-18T22:05:18.834Z,7.70
2023-05-18T22:10:20.680Z,6.10
2023-05-18T22:15:22.714Z,6.80
2023-05-18T22:20:24.860Z,6.90
2023-05-18T22:25:26.743Z,6.30
2023-05-18T22:30:28.525Z,6.30
2023-05-18T22:35:30.555Z,6.70
2023-05-18T22:40:32.427Z,5.60
2023-05-18T22:45:34.566Z,4.90
2023-05-18T22:50:36.413Z,4.50
2023-05-18T22:55:38.144Z,4.90
2023-05-18T23:00:40.032Z,5.40
2023-05-18T23:05:43.458Z,5.30
2023-05-18T23:10:50.726Z,5.30
2023-05-18T23:15:57.930Z,4.70
2023-05-18T23:20:59.943Z,4.70
2023-05-18T23:26:01.702Z,4.50
2023-05-18T23:31:03.494Z,4.90
2023-05-18T23:36:06.485Z,5.10
2023-05-18T23:41:09.192Z,4.50
2023-05-18T23:46:13.262Z,4.80
2023-05-18T23:51:19.254Z,5.50
2023-05-18T23:56:21.759Z,5.40
